Bluebird — 9V3663 — position and weather

sailwx.info

Track history (hours):
 
Tides and Currents Weather Stations Pressure Air Temp Water Temp Dewpoint Dewpoint Depression Visibility Wind Speed Wind Dir Waves Ship Positions

Bluebird

Last reported at 2017-Nov-18 16:12 UTC. Time now 2017-Nov-19 01:13 UTC.
Position N 36°18' E 014°49'.

Length 228 m; draft 8.7 m.

Type: Ship (hazmat cat A). MMSI: 563407000.

Date/timePositionNaut miles runAvg speedWind from/ knotsBaromVisibWave heightAir tempDewpointWater temp
2017-Nov-18 16:12N 36°18' E 014°49'513.6
2017-Nov-18 15:51N 36°20' E 014°43'413.4
2017-Nov-18 15:30N 36°22' E 014°38'713.3
2017-Nov-18 15:00N 36°25' E 014°30'613.1
2017-Nov-18 14:30N 36°27' E 014°23'713.1
2017-Nov-18 14:00N 36°30' E 014°16'713.2
2017-Nov-18 13:30N 36°33' E 014°08'613.1
2017-Nov-18 13:00N 36°36' E 014°01'713.2
2017-Nov-18 12:30N 36°38' E 013°53'613.1
2017-Nov-18 12:01N 36°40' E 013°46'  
2017-Nov-15 13:26N 36°00' W 005°16'613.6
2017-Nov-15 13:00N 35°59' W 005°23'613.2
2017-Nov-15 12:30N 35°57' W 005°30'  
Track history (hours):
 
Tides and Currents Weather Stations Pressure Air Temp Water Temp Dewpoint Dewpoint Depression Visibility Wind Speed Wind Dir Waves Ship Positions

Bluebird

Last reported at 2017-Nov-18 16:12 UTC. Time now 2017-Nov-19 01:13 UTC.
Position N 36°18' E 014°49'.

Length 228 m; draft 8.7 m.

Type: Ship (hazmat cat A). MMSI: 563407000.

Date/timePositionNaut miles runAvg speedWind from/ knotsBaromVisibWave heightAir tempDewpointWater temp
2017-Nov-18 16:12N 36°18' E 014°49'513.6
2017-Nov-18 15:51N 36°20' E 014°43'413.4
2017-Nov-18 15:30N 36°22' E 014°38'713.3
2017-Nov-18 15:00N 36°25' E 014°30'613.1
2017-Nov-18 14:30N 36°27' E 014°23'713.1
2017-Nov-18 14:00N 36°30' E 014°16'713.2
2017-Nov-18 13:30N 36°33' E 014°08'613.1
2017-Nov-18 13:00N 36°36' E 014°01'713.2
2017-Nov-18 12:30N 36°38' E 013°53'613.1
2017-Nov-18 12:01N 36°40' E 013°46'  
2017-Nov-15 13:26N 36°00' W 005°16'613.6
2017-Nov-15 13:00N 35°59' W 005°23'613.2
2017-Nov-15 12:30N 35°57' W 005°30'  

Dump ship's entire track history